Time;durP1;ratioP1;P1;durP2;ratioP2;P2;SDS_P1;SDS_P2;PMS_P1;PMS_P2;Temp;Humidity;BMP_temperature;BMP_pressure;BME280_temperature;BME280_humidity;BME280_pressure;Samples;Min_cycle;Max_cycle;Signal;HPM_P1;HPM_P2
2021/04/10 00:00:00;;;;;;;10.52;4.72;;;;;;;;;;4984185;28;20037;-82
2021/04/10 00:02:27;;;;;;;10.13;5.13;;;;;;;;;;4971028;28;20057;-82
2021/04/10 00:04:53;;;;;;;10.18;5.30;;;;;;;;;;4972648;28;20049;-82
2021/04/10 00:07:19;;;;;;;10.88;5.18;;;;;;;;;;4982231;28;20037;-82
2021/04/10 00:09:45;;;;;;;11.32;5.18;;;;;;;;;;4992969;28;20129;-83
2021/04/10 00:12:11;;;;;;;9.73;5.45;;;;;;;;;;4973979;28;20530;-82
2021/04/10 00:14:37;;;;;;;14.60;5.20;;;;;;;;;;4996737;28;20034;-82
2021/04/10 00:17:03;;;;;;;10.02;5.45;;;;;;;;;;4993794;28;20493;-81
2021/04/10 00:19:31;;;;;;;10.35;5.28;;;;;;;;;;4998157;28;20089;-81
2021/04/10 00:21:57;;;;;;;8.73;4.95;;;;;;;;;;4991384;28;20046;-81
2021/04/10 00:24:24;;;;;;;12.45;4.75;;;;;;;;;;4974046;28;20026;-81
2021/04/10 00:26:50;;;;;;;10.90;4.82;;;;;;;;;;4974043;28;20677;-81
2021/04/10 00:29:16;;;;;;;8.43;4.53;;;;;;;;;;4974074;28;20030;-81
2021/04/10 00:31:42;;;;;;;15.00;4.97;;;;;;;;;;4973759;28;20529;-81
2021/04/10 00:34:08;;;;;;;9.27;4.70;;;;;;;;;;4991512;28;20185;-81
2021/04/10 00:36:34;;;;;;;8.00;4.60;;;;;;;;;;4991551;28;20034;-81
2021/04/10 00:39:00;;;;;;;9.07;4.80;;;;;;;;;;4991399;28;20062;-81
2021/04/10 00:41:26;;;;;;;12.25;5.45;;;;;;;;;;4991502;28;20399;-81
2021/04/10 00:43:52;;;;;;;10.73;5.28;;;;;;;;;;4975102;28;20023;-81
2021/04/10 00:46:18;;;;;;;8.57;4.57;;;;;;;;;;4972346;28;20023;-81
2021/04/10 00:48:44;;;;;;;8.32;4.90;;;;;;;;;;4991206;28;20027;-81
2021/04/10 00:51:10;;;;;;;9.32;4.63;;;;;;;;;;4974025;28;20077;-80
2021/04/10 00:53:37;;;;;;;8.00;4.53;;;;;;;;;;4973563;28;20465;-81
2021/04/10 00:56:07;;;;;;;9.30;4.50;;;;;;;;;;4991320;28;20057;-81
2021/04/10 00:58:33;;;;;;;10.90;4.95;;;;;;;;;;4991161;28;20034;-80
2021/04/10 01:01:01;;;;;;;9.43;4.70;;;;;;;;;;4973235;28;20498;-81
2021/04/10 01:03:27;;;;;;;8.35;4.47;;;;;;;;;;4973550;28;20394;-82
2021/04/10 01:05:53;;;;;;;8.63;4.53;;;;;;;;;;4991213;28;20027;-80
2021/04/10 01:08:19;;;;;;;7.82;4.28;;;;;;;;;;4973490;28;20126;-81
2021/04/10 01:10:45;;;;;;;7.55;4.38;;;;;;;;;;4973872;28;20129;-81
2021/04/10 01:13:14;;;;;;;8.93;4.85;;;;;;;;;;4990960;28;20088;-81
2021/04/10 01:15:59;;;;;;;9.55;4.60;;;;;;;;;;4974105;28;20026;-80
2021/04/10 01:18:34;;;;;;;9.38;4.32;;;;;;;;;;4973492;28;20061;-80
2021/04/10 01:21:06;;;;;;;8.82;4.43;;;;;;;;;;4990874;28;20104;-81
2021/04/10 01:23:32;;;;;;;8.68;4.65;;;;;;;;;;4990689;28;20041;-81
2021/04/10 01:26:09;;;;;;;8.73;4.43;;;;;;;;;;4993542;28;20026;-81
2021/04/10 01:28:46;;;;;;;8.73;4.75;;;;;;;;;;4977803;28;20022;-81
2021/04/10 01:31:13;;;;;;;8.05;4.57;;;;;;;;;;4977332;28;20038;-82
2021/04/10 01:34:00;;;;;;;9.48;4.55;;;;;;;;;;4994047;28;20057;-81
2021/04/10 01:36:27;;;;;;;9.07;4.80;;;;;;;;;;4993950;28;20026;-82
2021/04/10 01:38:54;;;;;;;8.70;4.88;;;;;;;;;;4994772;28;20101;-80
2021/04/10 01:41:22;;;;;;;9.85;4.53;;;;;;;;;;4977014;28;20026;-82
2021/04/10 01:43:48;;;;;;;8.95;4.80;;;;;;;;;;4976969;28;20030;-82
2021/04/10 01:46:14;;;;;;;8.18;4.50;;;;;;;;;;4995366;28;20062;-81
2021/04/10 01:48:41;;;;;;;7.85;4.25;;;;;;;;;;4976950;28;20387;-82
2021/04/10 01:51:08;;;;;;;10.07;4.57;;;;;;;;;;4993768;28;20070;-81
2021/04/10 01:53:35;;;;;;;9.55;4.97;;;;;;;;;;4976606;28;20574;-81
2021/04/10 01:56:02;;;;;;;8.70;4.70;;;;;;;;;;4976953;28;20117;-82
2021/04/10 01:58:28;;;;;;;9.38;4.20;;;;;;;;;;4994153;28;20022;-81
2021/04/10 02:00:55;;;;;;;12.35;4.88;;;;;;;;;;4993979;28;20040;-80
2021/04/10 02:03:21;;;;;;;9.50;4.95;;;;;;;;;;4975830;28;20038;-80
2021/04/10 02:05:51;;;;;;;8.65;4.32;;;;;;;;;;4993687;28;20021;-81
2021/04/10 02:08:18;;;;;;;10.80;4.97;;;;;;;;;;4975665;28;20395;-81
2021/04/10 02:10:45;;;;;;;10.90;4.55;;;;;;;;;;4993567;28;20475;-82
2021/04/10 02:13:12;;;;;;;9.60;4.22;;;;;;;;;;4975093;28;20469;-81
2021/04/10 02:15:38;;;;;;;8.23;4.15;;;;;;;;;;4974591;28;20034;-81
2021/04/10 02:18:04;;;;;;;8.90;4.50;;;;;;;;;;4975719;28;20109;-79
2021/04/10 02:20:30;;;;;;;9.95;4.32;;;;;;;;;;4992514;28;20059;-81
2021/04/10 02:22:57;;;;;;;9.45;4.88;;;;;;;;;;4974929;28;20027;-80
2021/04/10 02:25:27;;;;;;;10.57;4.88;;;;;;;;;;4975492;28;20133;-80
2021/04/10 02:27:54;;;;;;;7.63;4.60;;;;;;;;;;4975507;28;20035;-81
2021/04/10 02:30:20;;;;;;;9.77;4.60;;;;;;;;;;4992882;28;20491;-80
2021/04/10 02:32:57;;;;;;;9.25;4.45;;;;;;;;;;4992761;28;20487;-80
2021/04/10 02:35:27;;;;;;;9.18;4.85;;;;;;;;;;4992274;28;20034;-81
2021/04/10 02:37:55;;;;;;;7.88;4.28;;;;;;;;;;4975293;28;20030;-81
2021/04/10 02:40:22;;;;;;;10.32;4.80;;;;;;;;;;4992616;28;20077;-80
2021/04/10 02:42:49;;;;;;;8.95;4.60;;;;;;;;;;4992517;28;20113;-81
2021/04/10 02:45:16;;;;;;;9.13;4.80;;;;;;;;;;4993442;28;20022;-81
2021/04/10 02:47:43;;;;;;;9.23;4.55;;;;;;;;;;4969705;28;20034;-81
2021/04/10 02:50:10;;;;;;;10.93;4.35;;;;;;;;;;4993375;28;20022;-80
2021/04/10 02:52:38;;;;;;;11.73;4.57;;;;;;;;;;4975948;28;20030;-81
2021/04/10 02:55:05;;;;;;;7.68;4.05;;;;;;;;;;4992892;28;20034;-81
2021/04/10 02:57:32;;;;;;;8.55;4.20;;;;;;;;;;4975640;28;20487;-80
2021/04/10 03:00:00;;;;;;;8.52;4.68;;;;;;;;;;4975859;28;20034;-81
2021/04/10 03:02:27;;;;;;;10.18;4.93;;;;;;;;;;4992639;28;20018;-81
2021/04/10 03:04:53;;;;;;;10.30;4.90;;;;;;;;;;4975529;28;20061;-80
2021/04/10 03:07:19;;;;;;;9.20;4.18;;;;;;;;;;4993186;28;20102;-81
2021/04/10 03:09:47;;;;;;;9.77;4.68;;;;;;;;;;4992745;28;20522;-80
2021/04/10 03:12:13;;;;;;;8.73;4.43;;;;;;;;;;4992717;28;20097;-80
2021/04/10 03:14:40;;;;;;;8.63;4.78;;;;;;;;;;4975346;28;20076;-81
2021/04/10 03:17:06;;;;;;;9.60;5.00;;;;;;;;;;4992445;28;20161;-81
2021/04/10 03:19:34;;;;;;;10.77;4.88;;;;;;;;;;4993017;28;20479;-81
2021/04/10 03:22:00;;;;;;;10.05;5.47;;;;;;;;;;4975162;28;20053;-80
2021/04/10 03:24:26;;;;;;;8.23;4.90;;;;;;;;;;4975369;28;20053;-80
2021/04/10 03:26:53;;;;;;;9.55;4.70;;;;;;;;;;4992211;28;20019;-80
2021/04/10 03:29:19;;;;;;;9.38;5.38;;;;;;;;;;4975424;28;20037;-81
2021/04/10 03:31:46;;;;;;;9.80;5.50;;;;;;;;;;4992260;28;20510;-81
2021/04/10 03:34:12;;;;;;;8.00;4.63;;;;;;;;;;4992172;28;20117;-81
2021/04/10 03:36:38;;;;;;;9.50;4.60;;;;;;;;;;4992664;28;20803;-81
2021/04/10 03:39:05;;;;;;;8.38;4.22;;;;;;;;;;4992221;28;20025;-81
2021/04/10 03:41:31;;;;;;;8.90;4.63;;;;;;;;;;4974852;28;20026;-81
2021/04/10 03:43:57;;;;;;;8.38;5.03;;;;;;;;;;4974623;28;20121;-81
2021/04/10 03:46:23;;;;;;;8.73;4.35;;;;;;;;;;4992344;28;20053;-81
2021/04/10 03:48:49;;;;;;;8.57;4.22;;;;;;;;;;4974013;28;20029;-81
2021/04/10 03:51:15;;;;;;;8.48;4.55;;;;;;;;;;4991935;28;20030;-81
2021/04/10 03:53:41;;;;;;;8.43;4.88;;;;;;;;;;4974718;28;20364;-80
2021/04/10 03:56:07;;;;;;;8.60;4.40;;;;;;;;;;4974824;28;20125;-81
2021/04/10 03:58:34;;;;;;;9.80;5.07;;;;;;;;;;4992046;28;20039;-81
2021/04/10 04:01:00;;;;;;;8.73;4.65;;;;;;;;;;4991561;28;20112;-81
2021/04/10 04:03:26;;;;;;;8.10;4.22;;;;;;;;;;4991420;28;20034;-80
2021/04/10 04:05:52;;;;;;;9.65;5.05;;;;;;;;;;4992160;28;20037;-80
2021/04/10 04:08:18;;;;;;;11.27;5.30;;;;;;;;;;4991811;28;20030;-81
2021/04/10 04:10:44;;;;;;;14.43;5.00;;;;;;;;;;4992000;28;20030;-80
2021/04/10 04:13:10;;;;;;;12.60;4.93;;;;;;;;;;4991151;28;20026;-80
2021/04/10 04:15:36;;;;;;;8.85;4.70;;;;;;;;;;4989907;28;20034;-81
2021/04/10 04:18:02;;;;;;;10.18;4.95;;;;;;;;;;4991922;28;20037;-80
2021/04/10 04:20:28;;;;;;;10.77;5.22;;;;;;;;;;4974033;28;20026;-80
2021/04/10 04:22:54;;;;;;;13.68;5.53;;;;;;;;;;4973982;28;20137;-79
2021/04/10 04:25:21;;;;;;;10.00;5.55;;;;;;;;;;4991426;28;20030;-79
2021/04/10 04:27:47;;;;;;;10.68;5.28;;;;;;;;;;4974047;28;20026;-80
2021/04/10 04:30:13;;;;;;;8.65;5.13;;;;;;;;;;4991662;28;20057;-80
2021/04/10 04:32:39;;;;;;;10.38;5.45;;;;;;;;;;4973227;28;20074;-81
2021/04/10 04:35:05;;;;;;;7.65;4.78;;;;;;;;;;4973947;28;20045;-80
2021/04/10 04:37:32;;;;;;;9.27;4.72;;;;;;;;;;4991763;28;20026;-81
2021/04/10 04:39:58;;;;;;;9.60;5.10;;;;;;;;;;4991485;28;20037;-80
2021/04/10 04:42:24;;;;;;;7.25;4.20;;;;;;;;;;4973774;28;20509;-81
2021/04/10 04:44:50;;;;;;;11.25;5.40;;;;;;;;;;4974331;28;20501;-81
2021/04/10 04:47:16;;;;;;;11.57;5.20;;;;;;;;;;4991192;28;20033;-81
2021/04/10 04:49:42;;;;;;;8.77;4.65;;;;;;;;;;4974172;28;20049;-81
2021/04/10 04:52:08;;;;;;;10.00;4.95;;;;;;;;;;4991477;28;20030;-80
2021/04/10 04:54:34;;;;;;;9.57;4.65;;;;;;;;;;4974133;28;20088;-81
2021/04/10 04:57:00;;;;;;;11.18;5.35;;;;;;;;;;4991100;28;20101;-80
2021/04/10 04:59:26;;;;;;;9.95;5.03;;;;;;;;;;4992776;28;20018;-81
2021/04/10 05:01:52;;;;;;;9.95;5.13;;;;;;;;;;4976266;28;20073;-81
2021/04/10 05:04:18;;;;;;;8.25;4.20;;;;;;;;;;4977684;28;20022;-81
2021/04/10 05:06:44;;;;;;;7.70;4.38;;;;;;;;;;4995439;28;20029;-80
2021/04/10 05:09:10;;;;;;;9.48;4.97;;;;;;;;;;4994941;28;20380;-80
2021/04/10 05:11:36;;;;;;;8.38;4.45;;;;;;;;;;4977765;28;20026;-80
2021/04/10 05:14:03;;;;;;;9.52;5.20;;;;;;;;;;4976795;28;20027;-81
2021/04/10 05:16:32;;;;;;;7.85;4.50;;;;;;;;;;4976723;28;20172;-81
2021/04/10 05:18:58;;;;;;;7.72;4.47;;;;;;;;;;4977169;28;20062;-81
2021/04/10 05:21:25;;;;;;;8.88;4.70;;;;;;;;;;4994648;28;20186;-81
2021/04/10 05:23:51;;;;;;;7.85;4.32;;;;;;;;;;4994552;28;20024;-81
2021/04/10 05:26:18;;;;;;;9.18;4.30;;;;;;;;;;4977358;28;20093;-80
2021/04/10 05:28:44;;;;;;;10.25;4.80;;;;;;;;;;4977367;28;20058;-82
2021/04/10 05:31:10;;;;;;;7.80;4.22;;;;;;;;;;4977309;28;20022;-82
2021/04/10 05:33:36;;;;;;;9.27;4.28;;;;;;;;;;4977015;28;20434;-83
2021/04/10 05:36:03;;;;;;;9.77;4.28;;;;;;;;;;4977046;28;20023;-82
2021/04/10 05:38:29;;;;;;;7.65;3.85;;;;;;;;;;4994605;28;20033;-82
2021/04/10 05:40:55;;;;;;;6.18;3.55;;;;;;;;;;4994705;28;20033;-80
2021/04/10 05:43:22;;;;;;;8.90;3.70;;;;;;;;;;4976853;28;20042;-80
2021/04/10 05:45:48;;;;;;;8.15;3.83;;;;;;;;;;4977211;28;20038;-81
2021/04/10 05:48:14;;;;;;;7.80;3.53;;;;;;;;;;4976486;28;20030;-80
2021/04/10 05:50:40;;;;;;;6.63;3.30;;;;;;;;;;4976680;28;20022;-80
2021/04/10 05:53:06;;;;;;;7.20;2.83;;;;;;;;;;4993719;28;20037;-80
2021/04/10 05:55:32;;;;;;;7.10;3.22;;;;;;;;;;4994357;28;20149;-81
2021/04/10 05:57:58;;;;;;;7.22;3.40;;;;;;;;;;4976578;28;20027;-80
2021/04/10 06:00:25;;;;;;;6.30;3.28;;;;;;;;;;4976854;28;20097;-81
2021/04/10 06:02:51;;;;;;;7.95;3.50;;;;;;;;;;4993697;28;20471;-80
2021/04/10 06:05:19;;;;;;;6.22;3.25;;;;;;;;;;4976338;28;20061;-80
2021/04/10 06:07:45;;;;;;;6.70;3.35;;;;;;;;;;4993458;28;20058;-80
2021/04/10 06:10:11;;;;;;;6.35;3.50;;;;;;;;;;4992967;28;20037;-80
2021/04/10 06:12:37;;;;;;;7.60;3.38;;;;;;;;;;4975632;28;20046;-81
2021/04/10 06:15:05;;;;;;;5.78;3.20;;;;;;;;;;4993036;28;20034;-81
2021/04/10 06:17:31;;;;;;;8.55;3.75;;;;;;;;;;4975594;28;20050;-81
2021/04/10 06:19:57;;;;;;;6.88;2.95;;;;;;;;;;4992972;28;20034;-80
2021/04/10 06:22:24;;;;;;;6.25;3.20;;;;;;;;;;4992909;28;20142;-81
2021/04/10 06:24:53;;;;;;;6.50;3.15;;;;;;;;;;4992977;28;20049;-82
2021/04/10 06:27:19;;;;;;;8.20;3.30;;;;;;;;;;4992952;28;20029;-82
2021/04/10 06:29:45;;;;;;;9.77;3.60;;;;;;;;;;4975557;28;20037;-82
2021/04/10 06:32:11;;;;;;;7.28;3.45;;;;;;;;;;4992850;28;20038;-82
2021/04/10 06:34:37;;;;;;;6.68;3.22;;;;;;;;;;4992575;28;20038;-82
2021/04/10 06:37:03;;;;;;;7.10;3.50;;;;;;;;;;4975737;28;20053;-81
2021/04/10 06:39:29;;;;;;;8.40;3.20;;;;;;;;;;4976248;28;20084;-82
2021/04/10 06:41:56;;;;;;;6.75;3.08;;;;;;;;;;4975339;28;20090;-81
2021/04/10 06:44:22;;;;;;;6.22;3.28;;;;;;;;;;4993617;28;20034;-81
2021/04/10 06:46:49;;;;;;;7.63;3.63;;;;;;;;;;4993614;28;20108;-81
2021/04/10 06:49:16;;;;;;;7.78;3.45;;;;;;;;;;4974402;28;20033;-82
2021/04/10 06:51:42;;;;;;;7.57;3.20;;;;;;;;;;4993270;28;20057;-81
2021/04/10 06:54:09;;;;;;;8.38;3.42;;;;;;;;;;4975734;28;20121;-82
2021/04/10 06:56:38;;;;;;;5.88;3.17;;;;;;;;;;4993059;28;20022;-81
2021/04/10 06:59:04;;;;;;;8.65;3.63;;;;;;;;;;4975024;28;20586;-81
2021/04/10 07:01:31;;;;;;;8.15;3.30;;;;;;;;;;4978896;28;20101;-78
2021/04/10 07:03:57;;;;;;;9.45;3.28;;;;;;;;;;4985512;28;20057;-78
2021/04/10 07:06:23;;;;;;;9.20;3.72;;;;;;;;;;4998934;28;20037;-77
2021/04/10 07:08:49;;;;;;;8.27;2.80;;;;;;;;;;4982711;28;20041;-78
2021/04/10 07:11:15;;;;;;;5.88;2.90;;;;;;;;;;4984648;28;20018;-78
2021/04/10 07:13:42;;;;;;;6.15;2.80;;;;;;;;;;4974928;28;20487;-78
2021/04/10 07:16:08;;;;;;;8.07;2.75;;;;;;;;;;4974774;28;20133;-78
2021/04/10 07:18:35;;;;;;;6.13;2.88;;;;;;;;;;4992590;28;20034;-78
2021/04/10 07:21:13;;;;;;;7.32;2.70;;;;;;;;;;4971518;28;20035;-78
2021/04/10 07:24:00;;;;;;;5.53;2.42;;;;;;;;;;4968767;28;20436;-78
2021/04/10 07:26:45;;;;;;;6.18;2.45;;;;;;;;;;4971328;28;20062;-78
2021/04/10 07:29:32;;;;;;;6.55;2.83;;;;;;;;;;4979005;28;20033;-85
2021/04/10 07:31:59;;;;;;;5.97;2.83;;;;;;;;;;4973638;28;20037;-79
2021/04/10 07:34:25;;;;;;;7.25;2.92;;;;;;;;;;4985451;28;20479;-86
2021/04/10 07:36:55;;;;;;;11.70;2.97;;;;;;;;;;4978754;28;20038;-81
2021/04/10 07:39:21;;;;;;;6.18;2.70;;;;;;;;;;4975957;28;20011;-85
2021/04/10 07:41:57;;;;;;;5.90;2.58;;;;;;;;;;4982449;28;20537;-82
2021/04/10 07:44:35;;;;;;;9.07;3.05;;;;;;;;;;4972093;28;20014;-83
2021/04/10 07:47:06;;;;;;;7.10;2.95;;;;;;;;;;4974768;28;20027;-89
2021/04/10 07:49:32;;;;;;;6.13;2.67;;;;;;;;;;4972555;28;20082;-78
2021/04/10 07:52:01;;;;;;;5.10;2.75;;;;;;;;;;4971501;28;20039;-79
2021/04/10 07:54:37;;;;;;;5.10;2.58;;;;;;;;;;4971213;28;20689;-80
2021/04/10 07:57:07;;;;;;;5.90;2.50;;;;;;;;;;4972818;28;20035;-77
2021/04/10 07:59:54;;;;;;;5.07;2.15;;;;;;;;;;4973247;28;20050;-76
2021/04/10 08:02:21;;;;;;;5.63;2.60;;;;;;;;;;4971242;28;20034;-80
2021/04/10 08:04:57;;;;;;;6.88;2.60;;;;;;;;;;4972839;28;20026;-79
2021/04/10 08:07:24;;;;;;;5.05;2.35;;;;;;;;;;5001387;28;20106;-78
2021/04/10 08:09:57;;;;;;;4.68;2.40;;;;;;;;;;5002087;28;20026;-81
2021/04/10 08:12:23;;;;;;;;;;;;;;;;;;4973446;28;20034;-78
2021/04/10 08:14:49;;;;;;;4.82;2.13;;;;;;;;;;4971010;28;19918;-79
2021/04/10 08:17:31;;;;;;;5.07;2.10;;;;;;;;;;4971481;28;20094;-78
2021/04/10 08:20:16;;;;;;;4.78;2.08;;;;;;;;;;4968679;28;20034;-83
2021/04/10 08:22:42;;;;;;;5.05;2.33;;;;;;;;;;4966044;28;20045;-80
2021/04/10 08:25:09;;;;;;;5.88;2.40;;;;;;;;;;4971543;28;20059;-78
2021/04/10 08:27:35;;;;;;;6.13;2.40;;;;;;;;;;4970965;28;20503;-79
2021/04/10 08:30:01;;;;;;;6.47;2.20;;;;;;;;;;4967479;28;20030;-80
2021/04/10 08:32:27;;;;;;;7.10;2.47;;;;;;;;;;4972345;28;20026;-82
2021/04/10 08:34:53;;;;;;;8.98;2.60;;;;;;;;;;4976560;28;20038;-80
2021/04/10 08:37:20;;;;;;;7.82;2.03;;;;;;;;;;4971675;28;20061;-80
2021/04/10 08:39:50;;;;;;;39.80;12.20;;;;;;;;;;4970220;28;20086;-81
2021/04/10 08:42:18;;;;;;;37.75;11.23;;;;;;;;;;4968551;28;20030;-80
2021/04/10 08:44:48;;;;;;;46.17;14.73;;;;;;;;;;4971457;28;20101;-81
2021/04/10 08:47:14;;;;;;;50.95;13.73;;;;;;;;;;4970541;28;20034;-81
2021/04/10 08:49:45;;;;;;;43.75;15.07;;;;;;;;;;4981332;28;20022;-79
2021/04/10 08:52:14;;;;;;;36.80;11.82;;;;;;;;;;4971208;28;20027;-80
2021/04/10 08:54:41;;;;;;;39.20;11.18;;;;;;;;;;4969354;28;20479;-82
2021/04/10 08:57:11;;;;;;;32.95;10.20;;;;;;;;;;4969802;28;20030;-80
2021/04/10 08:59:44;;;;;;;33.38;11.40;;;;;;;;;;4973199;28;20041;-79
2021/04/10 09:02:15;;;;;;;42.47;8.75;;;;;;;;;;4976358;28;20035;-81
2021/04/10 09:05:00;;;;;;;28.67;7.32;;;;;;;;;;4973897;28;20023;-84
2021/04/10 09:07:46;;;;;;;25.15;7.78;;;;;;;;;;4972462;28;20121;-87
2021/04/10 09:10:32;;;;;;;22.10;7.20;;;;;;;;;;4966554;28;20038;-89
2021/04/10 09:13:07;;;;;;;46.33;9.70;;;;;;;;;;4971912;28;20052;-77
2021/04/10 09:15:33;;;;;;;63.20;8.75;;;;;;;;;;4970870;28;20093;-78
2021/04/10 09:18:00;;;;;;;33.58;7.28;;;;;;;;;;4971119;28;20050;-73
2021/04/10 09:20:42;;;;;;;46.33;8.40;;;;;;;;;;4972529;28;20094;-72
2021/04/10 09:23:08;;;;;;;44.95;6.03;;;;;;;;;;4981895;28;20436;-76
2021/04/10 09:25:34;;;;;;;29.80;7.10;;;;;;;;;;5000107;28;20080;-73
2021/04/10 09:28:05;;;;;;;18.73;5.55;;;;;;;;;;5004173;28;20065;-74
2021/04/10 09:30:38;;;;;;;16.05;5.45;;;;;;;;;;4973907;28;20022;-72
2021/04/10 09:33:23;;;;;;;16.95;5.13;;;;;;;;;;4974003;28;20035;-72
2021/04/10 09:35:49;;;;;;;22.90;5.30;;;;;;;;;;4991566;28;20041;-72
2021/04/10 09:38:35;;;;;;;18.73;5.70;;;;;;;;;;4991247;28;20107;-74
2021/04/10 09:41:01;;;;;;;18.15;4.60;;;;;;;;;;4973363;28;20426;-76
2021/04/10 09:43:29;;;;;;;18.45;4.50;;;;;;;;;;4974177;28;20027;-74
2021/04/10 09:45:55;;;;;;;19.75;4.88;;;;;;;;;;4974759;28;20034;-86
2021/04/10 09:48:22;;;;;;;17.88;4.75;;;;;;;;;;4999607;28;20034;-75
2021/04/10 09:50:51;;;;;;;16.90;4.13;;;;;;;;;;5004772;28;20073;-83
2021/04/10 09:53:17;;;;;;;14.07;4.47;;;;;;;;;;5006346;28;20022;-77
2021/04/10 09:55:44;;;;;;;15.63;3.92;;;;;;;;;;5004067;28;20036;-78
2021/04/10 09:58:11;;;;;;;18.67;4.38;;;;;;;;;;5003718;28;20537;-78
2021/04/10 10:00:38;;;;;;;13.68;3.70;;;;;;;;;;4987104;28;20033;-88
2021/04/10 10:03:05;;;;;;;11.15;3.55;;;;;;;;;;5003743;28;20443;-79
2021/04/10 10:05:32;;;;;;;9.80;3.50;;;;;;;;;;5003104;28;20018;-82
2021/04/10 10:08:05;;;;;;;9.00;3.70;;;;;;;;;;4986464;28;20164;-79
2021/04/10 10:10:35;;;;;;;10.45;3.22;;;;;;;;;;5007121;28;20033;-82
2021/04/10 10:13:05;;;;;;;10.23;3.05;;;;;;;;;;4975443;28;20038;-75
2021/04/10 10:15:31;;;;;;;10.20;3.20;;;;;;;;;;4994349;28;20113;-76
2021/04/10 10:17:58;;;;;;;10.25;3.15;;;;;;;;;;4994776;28;20030;-73
2021/04/10 10:20:25;;;;;;;12.05;3.30;;;;;;;;;;4974828;28;20406;-71
2021/04/10 10:22:51;;;;;;;11.55;3.10;;;;;;;;;;4994585;28;20031;-76
2021/04/10 10:25:18;;;;;;;20.10;3.80;;;;;;;;;;4994368;28;20037;-73
2021/04/10 10:27:46;;;;;;;18.30;3.33;;;;;;;;;;5011557;28;20049;-70
2021/04/10 10:30:12;;;;;;;21.15;3.60;;;;;;;;;;5014590;28;20025;-72
2021/04/10 10:32:38;;;;;;;12.98;2.65;;;;;;;;;;4981359;28;20014;-72
2021/04/10 10:35:08;;;;;;;7.43;2.70;;;;;;;;;;4993434;28;20038;-70
2021/04/10 10:37:34;;;;;;;11.18;3.22;;;;;;;;;;4976334;28;20164;-74
2021/04/10 10:40:00;;;;;;;11.25;3.08;;;;;;;;;;4994774;28;20022;-74
2021/04/10 10:42:26;;;;;;;9.40;3.25;;;;;;;;;;4993939;28;20033;-78
2021/04/10 10:44:52;;;;;;;27.77;3.45;;;;;;;;;;4993605;28;20034;-76
2021/04/10 10:47:18;;;;;;;21.23;3.75;;;;;;;;;;4994110;28;20026;-78
2021/04/10 10:49:51;;;;;;;18.88;3.47;;;;;;;;;;4991158;28;20031;-76
2021/04/10 10:52:17;;;;;;;13.07;3.20;;;;;;;;;;4997915;28;20073;-73
2021/04/10 10:54:44;;;;;;;12.02;3.00;;;;;;;;;;4992497;28;20035;-78
2021/04/10 10:57:10;;;;;;;16.55;3.70;;;;;;;;;;4991917;28;20113;-75
2021/04/10 10:59:37;;;;;;;12.15;3.25;;;;;;;;;;4993284;28;20034;-77
2021/04/10 11:02:03;;;;;;;10.93;3.20;;;;;;;;;;4984743;28;20044;-75
2021/04/10 11:04:30;;;;;;;16.38;3.38;;;;;;;;;;5012589;28;20804;-76
2021/04/10 11:07:01;;;;;;;11.13;2.55;;;;;;;;;;4995147;28;20033;-75
2021/04/10 11:09:29;;;;;;;10.05;3.30;;;;;;;;;;5009559;28;20507;-75
2021/04/10 11:11:57;;;;;;;9.63;2.50;;;;;;;;;;4974575;28;20081;-75
2021/04/10 11:14:27;;;;;;;10.10;3.00;;;;;;;;;;4990570;28;20070;-75
2021/04/10 11:16:54;;;;;;;25.98;3.90;;;;;;;;;;4975889;28;20029;-78
2021/04/10 11:19:32;;;;;;;9.52;2.55;;;;;;;;;;4990460;28;20533;-78
2021/04/10 11:21:59;;;;;;;10.05;2.72;;;;;;;;;;5007166;28;20424;-76
2021/04/10 11:24:36;;;;;;;9.82;2.70;;;;;;;;;;4992311;28;20109;-73
2021/04/10 11:27:10;;;;;;;8.65;2.40;;;;;;;;;;4992367;28;20023;-74
2021/04/10 11:29:36;;;;;;;9.15;2.63;;;;;;;;;;4991944;28;20109;-76
2021/04/10 11:32:11;;;;;;;12.65;2.85;;;;;;;;;;4975062;28;20097;-75
2021/04/10 11:34:52;;;;;;;7.38;2.10;;;;;;;;;;4973836;28;20096;-74
2021/04/10 11:37:21;;;;;;;7.65;2.17;;;;;;;;;;4992683;28;20082;-75
2021/04/10 11:39:52;;;;;;;10.05;2.60;;;;;;;;;;4994276;28;20030;-73
2021/04/10 11:42:26;;;;;;;7.68;2.05;;;;;;;;;;4992572;28;20097;-78
2021/04/10 11:44:52;;;;;;;7.30;2.38;;;;;;;;;;4991549;28;20037;-76
2021/04/10 11:47:27;;;;;;;6.40;2.25;;;;;;;;;;4977128;28;20092;-74
2021/04/10 11:49:53;;;;;;;7.43;2.22;;;;;;;;;;4991479;28;20030;-76
2021/04/10 11:52:23;;;;;;;25.75;3.45;;;;;;;;;;4971417;28;20019;-74
2021/04/10 11:55:00;;;;;;;8.45;2.00;;;;;;;;;;4999560;28;20042;-81
2021/04/10 11:57:27;;;;;;;11.80;2.53;;;;;;;;;;4990191;28;20030;-75
2021/04/10 12:00:00;;;;;;;11.65;2.42;;;;;;;;;;4999165;28;20030;-73
2021/04/10 12:02:26;;;;;;;12.50;2.85;;;;;;;;;;4991558;28;20023;-75
2021/04/10 12:04:52;;;;;;;17.50;3.28;;;;;;;;;;4976335;28;20022;-74
2021/04/10 12:07:18;;;;;;;25.00;3.13;;;;;;;;;;5002631;28;20026;-75
2021/04/10 12:09:44;;;;;;;12.82;2.67;;;;;;;;;;4989362;28;20061;-71
2021/04/10 12:12:11;;;;;;;11.25;2.70;;;;;;;;;;4988724;28;20383;-71
2021/04/10 12:14:40;;;;;;;16.77;2.50;;;;;;;;;;4989923;28;20030;-75
2021/04/10 12:17:06;;;;;;;14.15;2.58;;;;;;;;;;4976153;28;20030;-76
2021/04/10 12:19:32;;;;;;;6.97;2.22;;;;;;;;;;4971368;28;20019;-72
2021/04/10 12:21:59;;;;;;;10.18;2.67;;;;;;;;;;4985839;28;20046;-73
2021/04/10 12:24:25;;;;;;;9.95;2.28;;;;;;;;;;4970706;28;20105;-73
2021/04/10 12:26:51;;;;;;;10.15;2.17;;;;;;;;;;4970139;28;20030;-74
2021/04/10 12:29:17;;;;;;;13.57;2.15;;;;;;;;;;4971055;28;20037;-72
2021/04/10 12:31:43;;;;;;;13.60;2.70;;;;;;;;;;4971822;28;20027;-73
2021/04/10 12:34:09;;;;;;;13.00;2.67;;;;;;;;;;4970761;28;20518;-74
2021/04/10 12:36:35;;;;;;;10.52;2.67;;;;;;;;;;4972044;28;20033;-75
2021/04/10 12:39:01;;;;;;;6.35;2.30;;;;;;;;;;4971338;28;20135;-73
2021/04/10 12:41:28;;;;;;;8.00;1.95;;;;;;;;;;4971890;28;20110;-72
2021/04/10 12:43:54;;;;;;;9.38;2.55;;;;;;;;;;4971834;28;20031;-76
2021/04/10 12:46:20;;;;;;;7.72;1.77;;;;;;;;;;4972162;28;20046;-73
2021/04/10 12:48:46;;;;;;;11.13;2.40;;;;;;;;;;4971911;28;20050;-73
2021/04/10 12:51:12;;;;;;;15.23;1.92;;;;;;;;;;4971718;28;20035;-72
2021/04/10 12:53:39;;;;;;;5.80;2.05;;;;;;;;;;4971649;28;20662;-73
2021/04/10 12:56:05;;;;;;;7.90;2.40;;;;;;;;;;4970499;28;20046;-73
2021/04/10 12:58:31;;;;;;;5.78;1.67;;;;;;;;;;4970350;28;20126;-74
2021/04/10 13:00:57;;;;;;;6.38;1.63;;;;;;;;;;4970269;28;20062;-75
2021/04/10 13:03:24;;;;;;;8.45;2.20;;;;;;;;;;4971811;28;20724;-72
2021/04/10 13:05:50;;;;;;;5.55;1.73;;;;;;;;;;4971761;28;20054;-73
2021/04/10 13:08:16;;;;;;;5.20;1.80;;;;;;;;;;4970415;28;20118;-73
2021/04/10 13:10:42;;;;;;;5.35;1.70;;;;;;;;;;4971886;28;20026;-76
2021/04/10 13:13:08;;;;;;;4.93;1.95;;;;;;;;;;4969586;28;20081;-72
2021/04/10 13:15:35;;;;;;;6.95;1.52;;;;;;;;;;4970215;28;20070;-74
2021/04/10 13:18:01;;;;;;;5.15;1.88;;;;;;;;;;4971978;28;20425;-73
2021/04/10 13:20:30;;;;;;;6.70;2.03;;;;;;;;;;4972543;28;20058;-74
2021/04/10 13:22:57;;;;;;;5.72;1.70;;;;;;;;;;4994568;28;20065;-72
2021/04/10 13:25:23;;;;;;;4.28;1.50;;;;;;;;;;4994510;28;20037;-72
2021/04/10 13:27:50;;;;;;;6.88;1.98;;;;;;;;;;4977379;28;20035;-73
2021/04/10 13:30:17;;;;;;;4.90;1.73;;;;;;;;;;4977321;28;20113;-75
2021/04/10 13:32:43;;;;;;;5.38;1.67;;;;;;;;;;4994586;28;20019;-72
2021/04/10 13:35:09;;;;;;;3.53;1.50;;;;;;;;;;4976963;28;20047;-73
2021/04/10 13:37:35;;;;;;;7.25;1.70;;;;;;;;;;4994845;28;20033;-72
2021/04/10 13:40:02;;;;;;;5.22;1.60;;;;;;;;;;4994558;28;20054;-76
2021/04/10 13:42:28;;;;;;;4.93;1.80;;;;;;;;;;4994048;28;20023;-72
2021/04/10 13:44:54;;;;;;;4.13;1.50;;;;;;;;;;4994421;28;20023;-79
2021/04/10 13:47:20;;;;;;;6.22;1.48;;;;;;;;;;4993960;28;20022;-72
2021/04/10 13:49:46;;;;;;;4.95;1.48;;;;;;;;;;4994082;28;20034;-76
2021/04/10 13:52:12;;;;;;;3.95;1.75;;;;;;;;;;4975168;28;20523;-75
2021/04/10 13:54:38;;;;;;;3.78;1.60;;;;;;;;;;4993854;28;20040;-75
2021/04/10 13:57:04;;;;;;;4.45;1.65;;;;;;;;;;4994014;28;20030;-72
2021/04/10 13:59:30;;;;;;;4.25;1.50;;;;;;;;;;4993777;28;20030;-72
2021/04/10 14:01:56;;;;;;;7.60;1.60;;;;;;;;;;4993754;28;20026;-76
2021/04/10 14:04:30;;;;;;;3.75;1.23;;;;;;;;;;4976721;28;20022;-72
2021/04/10 14:06:56;;;;;;;7.40;1.55;;;;;;;;;;4994097;28;20109;-73
2021/04/10 14:09:22;;;;;;;4.78;1.40;;;;;;;;;;4993471;28;20101;-74
2021/04/10 14:11:48;;;;;;;3.45;1.40;;;;;;;;;;4994156;28;20036;-79
2021/04/10 14:14:14;;;;;;;5.28;1.48;;;;;;;;;;4993615;28;20045;-74
2021/04/10 14:16:41;;;;;;;4.30;1.35;;;;;;;;;;4976213;28;20026;-73
2021/04/10 14:19:07;;;;;;;4.30;1.35;;;;;;;;;;4975919;28;20038;-74
2021/04/10 14:21:33;;;;;;;3.22;1.10;;;;;;;;;;4993987;28;20491;-74
2021/04/10 14:23:59;;;;;;;4.22;1.23;;;;;;;;;;4972787;28;20035;-72
2021/04/10 14:26:26;;;;;;;6.22;1.50;;;;;;;;;;4974713;28;20029;-74
2021/04/10 14:28:54;;;;;;;5.07;1.40;;;;;;;;;;4990057;28;20018;-78
2021/04/10 14:31:22;;;;;;;5.90;1.60;;;;;;;;;;4993170;28;20030;-73
2021/04/10 14:33:48;;;;;;;4.53;1.40;;;;;;;;;;4993387;28;20027;-73
2021/04/10 14:36:14;;;;;;;4.82;1.80;;;;;;;;;;4976116;28;20607;-74
2021/04/10 14:38:40;;;;;;;4.18;1.10;;;;;;;;;;4993625;28;20025;-74
2021/04/10 14:41:06;;;;;;;3.53;1.20;;;;;;;;;;4993293;28;20026;-74